ADDS METAR Data

Data at: 0509 UTC 20 Apr 2018

METAR for:KMQE (Milton/Blue Hills Ob, MA, US)
Text:KMQE 200456Z AUTO 30012G22KT 02/M01 A2981 RMK AO1 SLP110 T00221011 400440006
Temperature: 2.2°C ( 36°F)
Dewpoint: -1.1°C ( 30°F) [RH = 79%]
Pressure (altimeter):29.81 inches Hg (1009.6 mb) [Sea level pressure: 1011.0 mb]
Winds:from the WNW (300 degrees) at 14 MPH (12 knots; 6.2 m/s) gusting to 25 MPH (22 knots; 11.3 m/s)
QC Flag:automated observation with no human augmentation